sensor_id;sensor_type;location;lat;lon;timestamp;pressure;altitude;pressure_sealevel;temperature;humidity
54816;BME280;40715;55.752;37.884;2023-04-12T00:01:03;99194.56;;;31.26;23.65
54816;BME280;40715;55.752;37.884;2023-04-12T00:03:30;99202.75;;;31.26;23.66
54816;BME280;40715;55.752;37.884;2023-04-12T00:06:00;99188.47;;;31.24;23.79
54816;BME280;40715;55.752;37.884;2023-04-12T00:08:32;99178.59;;;31.23;23.31
54816;BME280;40715;55.752;37.884;2023-04-12T00:11:02;99194.75;;;31.25;23.47
54816;BME280;40715;55.752;37.884;2023-04-12T00:13:29;99191.00;;;31.26;23.86
54816;BME280;40715;55.752;37.884;2023-04-12T00:15:56;99186.41;;;31.26;23.45
54816;BME280;40715;55.752;37.884;2023-04-12T00:18:23;99191.00;;;31.26;23.71
54816;BME280;40715;55.752;37.884;2023-04-12T00:20:51;99188.28;;;31.26;23.79
54816;BME280;40715;55.752;37.884;2023-04-12T00:23:19;99200.00;;;31.26;23.62
54816;BME280;40715;55.752;37.884;2023-04-12T00:25:46;99192.88;;;31.25;23.51
54816;BME280;40715;55.752;37.884;2023-04-12T00:28:13;99200.19;;;31.25;23.57
54816;BME280;40715;55.752;37.884;2023-04-12T00:30:41;99199.00;;;31.27;23.53
54816;BME280;40715;55.752;37.884;2023-04-12T00:33:08;99202.56;;;31.28;23.66
54816;BME280;40715;55.752;37.884;2023-04-12T00:35:35;99202.75;;;31.26;23.69
54816;BME280;40715;55.752;37.884;2023-04-12T00:38:02;99209.03;;;31.27;23.79
54816;BME280;40715;55.752;37.884;2023-04-12T00:40:31;99206.28;;;31.27;23.70
54816;BME280;40715;55.752;37.884;2023-04-12T00:42:59;99201.91;;;31.26;23.52
54816;BME280;40715;55.752;37.884;2023-04-12T00:45:26;99190.84;;;31.27;23.45
54816;BME280;40715;55.752;37.884;2023-04-12T00:47:53;99193.91;;;31.24;23.52
54816;BME280;40715;55.752;37.884;2023-04-12T00:50:22;99199.19;;;31.26;23.41
54816;BME280;40715;55.752;37.884;2023-04-12T00:52:51;99192.03;;;31.25;23.72
54816;BME280;40715;55.752;37.884;2023-04-12T00:55:19;99199.00;;;31.27;23.71
54816;BME280;40715;55.752;37.884;2023-04-12T00:57:46;99196.28;;;31.27;23.90
54816;BME280;40715;55.752;37.884;2023-04-12T01:00:13;99199.00;;;31.27;23.69
54816;BME280;40715;55.752;37.884;2023-04-12T01:02:43;99202.75;;;31.26;23.66
54816;BME280;40715;55.752;37.884;2023-04-12T01:05:16;99189.13;;;31.26;23.53
54816;BME280;40715;55.752;37.884;2023-04-12T01:13:31;99194.91;;;31.31;23.93
54816;BME280;40715;55.752;37.884;2023-04-12T01:16:11;99191.13;;;31.32;23.56
54816;BME280;40715;55.752;37.884;2023-04-12T01:18:44;99187.09;;;31.28;24.02
54816;BME280;40715;55.752;37.884;2023-04-12T01:21:25;99185.88;;;31.31;23.68
54816;BME280;40715;55.752;37.884;2023-04-12T01:29:13;99183.16;;;31.31;23.65
54816;BME280;40715;55.752;37.884;2023-04-12T01:32:01;99168.75;;;31.45;23.85
54816;BME280;40715;55.752;37.884;2023-04-12T01:34:30;99171.78;;;31.27;23.70
54816;BME280;40715;55.752;37.884;2023-04-12T01:37:01;99178.59;;;31.23;23.90
54816;BME280;40715;55.752;37.884;2023-04-12T01:39:29;99172.16;;;31.24;23.83
54816;BME280;40715;55.752;37.884;2023-04-12T01:41:58;99171.09;;;31.25;23.76
54816;BME280;40715;55.752;37.884;2023-04-12T01:44:24;99168.38;;;31.25;23.69
54816;BME280;40715;55.752;37.884;2023-04-12T01:46:51;99168.38;;;31.25;23.90
54816;BME280;40715;55.752;37.884;2023-04-12T01:49:20;99170.25;;;31.25;23.54
54816;BME280;40715;55.752;37.884;2023-04-12T01:52:08;99169.50;;;31.39;23.91
54816;BME280;40715;55.752;37.884;2023-04-12T01:54:38;99168.50;;;31.32;23.58
54816;BME280;40715;55.752;37.884;2023-04-12T01:57:08;99168.19;;;31.27;23.84
54816;BME280;40715;55.752;37.884;2023-04-12T01:59:38;99158.38;;;31.26;24.03
54816;BME280;40715;55.752;37.884;2023-04-12T02:02:07;99156.66;;;31.25;23.60
54816;BME280;40715;55.752;37.884;2023-04-12T02:04:35;99154.78;;;31.25;23.72
54816;BME280;40715;55.752;37.884;2023-04-12T02:07:03;99153.56;;;31.28;23.96
54816;BME280;40715;55.752;37.884;2023-04-12T02:09:35;99159.19;;;31.26;23.85
54816;BME280;40715;55.752;37.884;2023-04-12T02:12:04;99156.47;;;31.26;23.75
54816;BME280;40715;55.752;37.884;2023-04-12T02:14:31;99151.03;;;31.26;23.97
54816;BME280;40715;55.752;37.884;2023-04-12T02:17:02;99152.06;;;31.25;24.00
54816;BME280;40715;55.752;37.884;2023-04-12T02:19:30;99155.47;;;31.27;23.97
54816;BME280;40715;55.752;37.884;2023-04-12T02:21:57;99156.28;;;31.28;23.66
54816;BME280;40715;55.752;37.884;2023-04-12T02:24:24;99152.91;;;31.26;24.06
54816;BME280;40715;55.752;37.884;2023-04-12T02:26:52;99155.47;;;31.27;23.66
54816;BME280;40715;55.752;37.884;2023-04-12T02:29:20;99149.00;;;31.28;23.71
54816;BME280;40715;55.752;37.884;2023-04-12T02:31:47;99151.72;;;31.28;23.47
54816;BME280;40715;55.752;37.884;2023-04-12T02:34:14;99160.72;;;31.29;24.07
54816;BME280;40715;55.752;37.884;2023-04-12T02:36:47;99148.31;;;31.26;24.02
54816;BME280;40715;55.752;37.884;2023-04-12T02:39:14;99154.59;;;31.27;23.85
54816;BME280;40715;55.752;37.884;2023-04-12T02:41:44;99141.53;;;31.22;23.96
54816;BME280;40715;55.752;37.884;2023-04-12T02:44:11;99156.47;;;31.26;23.96
54816;BME280;40715;55.752;37.884;2023-04-12T02:46:38;99150.84;;;31.28;23.77
54816;BME280;40715;55.752;37.884;2023-04-12T02:49:05;99164.47;;;31.28;24.04
54816;BME280;40715;55.752;37.884;2023-04-12T02:51:32;99162.75;;;31.27;23.92
54816;BME280;40715;55.752;37.884;2023-04-12T02:53:59;99161.56;;;31.29;24.65
54816;BME280;40715;55.752;37.884;2023-04-12T02:56:27;99159.69;;;31.30;25.17
54816;BME280;40715;55.752;37.884;2023-04-12T02:58:55;99171.06;;;31.33;25.85
54816;BME280;40715;55.752;37.884;2023-04-12T03:01:22;99163.91;;;31.32;26.57
54816;BME280;40715;55.752;37.884;2023-04-12T03:03:49;99169.84;;;31.36;26.79
54816;BME280;40715;55.752;37.884;2023-04-12T03:06:16;99167.13;;;31.36;27.59
54816;BME280;40715;55.752;37.884;2023-04-12T03:08:43;99171.56;;;31.37;27.66
54816;BME280;40715;55.752;37.884;2023-04-12T03:11:10;99169.69;;;31.38;27.71
54816;BME280;40715;55.752;37.884;2023-04-12T03:13:37;99181.25;;;31.40;27.68
54816;BME280;40715;55.752;37.884;2023-04-12T03:16:20;99183.38;;;31.53;27.14
54816;BME280;40715;55.752;37.884;2023-04-12T03:18:49;99174.75;;;31.41;27.12
54816;BME280;40715;55.752;37.884;2023-04-12T03:21:17;99173.09;;;31.40;27.47
54816;BME280;40715;55.752;37.884;2023-04-12T03:23:44;99182.09;;;31.40;27.16
54816;BME280;40715;55.752;37.884;2023-04-12T03:26:11;99177.66;;;31.39;27.25
54816;BME280;40715;55.752;37.884;2023-04-12T03:28:40;99183.09;;;31.39;27.45
54816;BME280;40715;55.752;37.884;2023-04-12T03:31:07;99173.09;;;31.40;27.32
54816;BME280;40715;55.752;37.884;2023-04-12T03:33:34;99179.38;;;31.40;27.45
54816;BME280;40715;55.752;37.884;2023-04-12T03:36:00;99183.97;;;31.40;27.40
54816;BME280;40715;55.752;37.884;2023-04-12T03:38:27;99182.91;;;31.41;27.74
54816;BME280;40715;55.752;37.884;2023-04-12T03:40:54;99182.09;;;31.40;27.74
54816;BME280;40715;55.752;37.884;2023-04-12T03:43:21;99178.34;;;31.41;27.82
54816;BME280;40715;55.752;37.884;2023-04-12T03:45:49;99177.66;;;31.39;27.58
54816;BME280;40715;55.752;37.884;2023-04-12T03:48:16;99182.91;;;31.41;27.63
54816;BME280;40715;55.752;37.884;2023-04-12T03:50:43;99188.19;;;31.42;27.61
54816;BME280;40715;55.752;37.884;2023-04-12T03:53:10;99188.19;;;31.42;27.94
54816;BME280;40715;55.752;37.884;2023-04-12T03:55:37;99188.34;;;31.41;27.95
54816;BME280;40715;55.752;37.884;2023-04-12T03:58:04;99185.63;;;31.41;27.72
54816;BME280;40715;55.752;37.884;2023-04-12T04:00:31;99192.78;;;31.42;28.09
54816;BME280;40715;55.752;37.884;2023-04-12T04:02:59;99198.03;;;31.43;28.23
54816;BME280;40715;55.752;37.884;2023-04-12T04:05:29;99188.00;;;31.44;28.23
54816;BME280;40715;55.752;37.884;2023-04-12T04:07:56;99192.41;;;31.45;28.09
54816;BME280;40715;55.752;37.884;2023-04-12T04:10:28;99190.53;;;31.45;27.79
54816;BME280;40715;55.752;37.884;2023-04-12T04:12:55;99191.41;;;31.46;28.10
54816;BME280;40715;55.752;37.884;2023-04-12T04:15:23;99199.56;;;31.46;27.73
54816;BME280;40715;55.752;37.884;2023-04-12T04:17:51;99197.03;;;31.44;27.83
54816;BME280;40715;55.752;37.884;2023-04-12T04:20:19;99190.72;;;31.44;27.57
54816;BME280;40715;55.752;37.884;2023-04-12T04:22:45;99199.22;;;31.49;27.59
54816;BME280;40715;55.752;37.884;2023-04-12T04:25:15;99198.38;;;31.48;27.60
54816;BME280;40715;55.752;37.884;2023-04-12T04:27:43;99197.31;;;31.49;27.67
54816;BME280;40715;55.752;37.884;2023-04-12T04:30:11;99200.03;;;31.49;27.75
54816;BME280;40715;55.752;37.884;2023-04-12T04:32:41;99188.50;;;31.47;27.60
54816;BME280;40715;55.752;37.884;2023-04-12T04:35:08;99188.13;;;31.50;27.85
54816;BME280;40715;55.752;37.884;2023-04-12T04:37:35;99197.81;;;31.53;27.52
54816;BME280;40715;55.752;37.884;2023-04-12T04:40:02;99190.03;;;31.50;27.73
54816;BME280;40715;55.752;37.884;2023-04-12T04:42:38;99197.13;;;31.59;27.77
54816;BME280;40715;55.752;37.884;2023-04-12T04:45:05;99200.53;;;31.53;27.44
54816;BME280;40715;55.752;37.884;2023-04-12T04:47:39;99199.53;;;31.54;27.61
54816;BME280;40715;55.752;37.884;2023-04-12T04:50:06;99199.53;;;31.54;27.61
54816;BME280;40715;55.752;37.884;2023-04-12T04:52:33;99197.47;;;31.56;27.49
54816;BME280;40715;55.752;37.884;2023-04-12T04:55:00;99201.00;;;31.57;27.86
54816;BME280;40715;55.752;37.884;2023-04-12T04:57:29;99202.91;;;31.56;27.80
54816;BME280;40715;55.752;37.884;2023-04-12T04:59:56;99205.63;;;31.56;27.89
54816;BME280;40715;55.752;37.884;2023-04-12T05:02:23;99206.16;;;31.60;27.75
54816;BME280;40715;55.752;37.884;2023-04-12T05:04:51;99203.44;;;31.60;27.42
54816;BME280;40715;55.752;37.884;2023-04-12T05:07:21;99203.25;;;31.61;27.44
54816;BME280;40715;55.752;37.884;2023-04-12T05:09:49;99203.44;;;31.60;27.45
54816;BME280;40715;55.752;37.884;2023-04-12T05:12:16;99209.53;;;31.62;27.87
54816;BME280;40715;55.752;37.884;2023-04-12T05:14:43;99210.38;;;31.62;27.61
54816;BME280;40715;55.752;37.884;2023-04-12T05:17:15;99211.06;;;31.64;27.66
54816;BME280;40715;55.752;37.884;2023-04-12T05:19:42;99212.75;;;31.65;27.75
54816;BME280;40715;55.752;37.884;2023-04-12T05:22:10;99212.75;;;31.65;27.70
54816;BME280;40715;55.752;37.884;2023-04-12T05:24:38;99206.25;;;31.66;27.54
54816;BME280;40715;55.752;37.884;2023-04-12T05:27:05;99193.75;;;31.57;27.59
54816;BME280;40715;55.752;37.884;2023-04-12T05:29:32;99210.69;;;31.67;27.31
54816;BME280;40715;55.752;37.884;2023-04-12T05:31:59;99212.38;;;31.69;27.52
54816;BME280;40715;55.752;37.884;2023-04-12T05:34:27;99214.06;;;31.70;27.30
54816;BME280;40715;55.752;37.884;2023-04-12T05:36:54;99223.94;;;31.71;27.25
54816;BME280;40715;55.752;37.884;2023-04-12T05:39:21;99217.47;;;31.72;27.41
54816;BME280;40715;55.752;37.884;2023-04-12T05:41:48;99213.91;;;31.71;27.38
54816;BME280;40715;55.752;37.884;2023-04-12T05:44:17;99213.72;;;31.73;27.35
54816;BME280;40715;55.752;37.884;2023-04-12T05:46:45;99222.72;;;31.73;27.52
54816;BME280;40715;55.752;37.884;2023-04-12T05:49:12;99216.25;;;31.74;27.44
54816;BME280;40715;55.752;37.884;2023-04-12T05:51:38;99218.81;;;31.76;27.47
54816;BME280;40715;55.752;37.884;2023-04-12T05:54:07;99217.09;;;31.75;28.10
54816;BME280;40715;55.752;37.884;2023-04-12T05:56:35;99218.63;;;31.77;28.09
54816;BME280;40715;55.752;37.884;2023-04-12T05:59:02;99220.13;;;31.80;28.13
54816;BME280;40715;55.752;37.884;2023-04-12T06:01:30;99215.53;;;31.80;28.04
54816;BME280;40715;55.752;37.884;2023-04-12T06:04:00;99217.41;;;31.80;28.28
54816;BME280;40715;55.752;37.884;2023-04-12T06:06:31;99213.81;;;31.79;28.13
54816;BME280;40715;55.752;37.884;2023-04-12T06:08:59;99219.94;;;31.81;28.43
54816;BME280;40715;55.752;37.884;2023-04-12T06:11:26;99219.94;;;31.81;28.53
54816;BME280;40715;55.752;37.884;2023-04-12T06:13:57;99215.34;;;31.82;28.22
54816;BME280;40715;55.752;37.884;2023-04-12T06:16:24;99205.97;;;31.84;28.55
54816;BME280;40715;55.752;37.884;2023-04-12T06:18:51;99211.78;;;31.81;28.42
54816;BME280;40715;55.752;37.884;2023-04-12T06:21:18;99212.44;;;31.83;28.58
54816;BME280;40715;55.752;37.884;2023-04-12T06:23:46;99218.56;;;31.86;28.14
54816;BME280;40715;55.752;37.884;2023-04-12T06:26:14;99208.69;;;31.84;28.48
54816;BME280;40715;55.752;37.884;2023-04-12T06:28:42;99212.06;;;31.87;28.26
54816;BME280;40715;55.752;37.884;2023-04-12T06:31:09;99215.66;;;31.87;28.33
54816;BME280;40715;55.752;37.884;2023-04-12T06:33:36;99209.16;;;31.88;28.31
54816;BME280;40715;55.752;37.884;2023-04-12T06:36:03;99197.59;;;31.86;28.38
54816;BME280;40715;55.752;37.884;2023-04-12T06:38:30;99206.28;;;31.90;27.99
54816;BME280;40715;55.752;37.884;2023-04-12T06:40:57;99214.44;;;31.90;28.04
54816;BME280;40715;55.752;37.884;2023-04-12T06:43:24;99209.00;;;31.90;28.52
54816;BME280;40715;55.752;37.884;2023-04-12T06:45:51;99206.94;;;31.92;28.63
54816;BME280;40715;55.752;37.884;2023-04-12T06:48:18;99204.19;;;31.92;28.29
54816;BME280;40715;55.752;37.884;2023-04-12T06:50:45;99204.84;;;31.94;28.32
54816;BME280;40715;55.752;37.884;2023-04-12T06:53:12;99217.44;;;31.95;28.89
54816;BME280;40715;55.752;37.884;2023-04-12T06:55:39;99211.16;;;31.94;28.75
54816;BME280;40715;55.752;37.884;2023-04-12T06:58:06;99213.53;;;31.97;29.15
54816;BME280;40715;55.752;37.884;2023-04-12T07:00:33;99205.34;;;31.97;29.17
54816;BME280;40715;55.752;37.884;2023-04-12T07:03:00;99217.94;;;31.98;29.27
54816;BME280;40715;55.752;37.884;2023-04-12T07:05:27;99216.75;;;32.01;29.45
54816;BME280;40715;55.752;37.884;2023-04-12T07:07:54;99215.69;;;32.02;29.24
54816;BME280;40715;55.752;37.884;2023-04-12T07:10:21;99212.78;;;32.04;29.57
54816;BME280;40715;55.752;37.884;2023-04-12T07:12:48;99210.91;;;32.04;29.59
54816;BME280;40715;55.752;37.884;2023-04-12T07:15:15;99205.28;;;32.06;29.80
54816;BME280;40715;55.752;37.884;2023-04-12T07:17:42;99213.47;;;32.06;29.73
54816;BME280;40715;55.752;37.884;2023-04-12T07:20:09;99208.00;;;32.06;29.43
54816;BME280;40715;55.752;37.884;2023-04-12T07:22:36;99218.72;;;32.07;29.57
54816;BME280;40715;55.752;37.884;2023-04-12T07:25:04;99217.84;;;32.07;29.81
54816;BME280;40715;55.752;37.884;2023-04-12T07:27:35;99227.53;;;32.09;29.74
54816;BME280;40715;55.752;37.884;2023-04-12T07:30:03;99216.84;;;32.08;29.57
54816;BME280;40715;55.752;37.884;2023-04-12T07:32:30;99219.19;;;32.11;29.47
54816;BME280;40715;55.752;37.884;2023-04-12T07:34:57;99212.91;;;32.10;29.59
54816;BME280;40715;55.752;37.884;2023-04-12T07:37:24;99215.28;;;32.13;29.39
54816;BME280;40715;55.752;37.884;2023-04-12T07:39:50;99212.72;;;32.12;29.40
54816;BME280;40715;55.752;37.884;2023-04-12T07:42:18;99210.81;;;32.12;29.39
54816;BME280;40715;55.752;37.884;2023-04-12T07:44:45;99206.28;;;32.13;29.45
54816;BME280;40715;55.752;37.884;2023-04-12T07:47:12;99206.91;;;32.15;29.42
54816;BME280;40715;55.752;37.884;2023-04-12T07:49:39;99218.69;;;32.15;29.19
54816;BME280;40715;55.752;37.884;2023-04-12T07:52:06;99208.63;;;32.16;29.38
54816;BME280;40715;55.752;37.884;2023-04-12T07:54:33;99214.72;;;32.18;29.44
54816;BME280;40715;55.752;37.884;2023-04-12T07:57:01;99211.34;;;32.16;29.00
54816;BME280;40715;55.752;37.884;2023-04-12T07:59:30;99206.75;;;32.16;29.12
54816;BME280;40715;55.752;37.884;2023-04-12T08:01:57;99212.69;;;32.20;29.01
54816;BME280;40715;55.752;37.884;2023-04-12T08:04:24;99204.38;;;32.13;28.82
54816;BME280;40715;55.752;37.884;2023-04-12T08:06:54;99189.59;;;32.08;28.83
54816;BME280;40715;55.752;37.884;2023-04-12T08:09:21;99198.03;;;32.21;29.07
54816;BME280;40715;55.752;37.884;2023-04-12T08:11:50;99197.16;;;32.21;28.55
54816;BME280;40715;55.752;37.884;2023-04-12T08:14:17;99192.75;;;32.20;28.90
54816;BME280;40715;55.752;37.884;2023-04-12T08:16:44;99204.97;;;32.24;28.98
54816;BME280;40715;55.752;37.884;2023-04-12T08:19:11;99191.34;;;32.24;28.78
54816;BME280;40715;55.752;37.884;2023-04-12T08:21:38;99188.44;;;32.25;28.85
54816;BME280;40715;55.752;37.884;2023-04-12T08:24:05;99188.44;;;32.25;28.79
54816;BME280;40715;55.752;37.884;2023-04-12T08:26:32;99185.53;;;32.27;28.85
54816;BME280;40715;55.752;37.884;2023-04-12T08:28:59;99178.09;;;32.21;28.68
54816;BME280;40715;55.752;37.884;2023-04-12T08:31:27;99193.72;;;32.27;28.57
54816;BME280;40715;55.752;37.884;2023-04-12T08:33:54;99182.81;;;32.27;28.57
54816;BME280;40715;55.752;37.884;2023-04-12T08:36:22;99189.75;;;32.29;28.17
54816;BME280;40715;55.752;37.884;2023-04-12T08:38:49;99188.72;;;32.30;28.10
54816;BME280;40715;55.752;37.884;2023-04-12T08:41:18;99177.00;;;32.30;28.01
54816;BME280;40715;55.752;37.884;2023-04-12T08:43:46;99173.41;;;32.29;28.07
54816;BME280;40715;55.752;37.884;2023-04-12T08:46:14;99179.72;;;32.30;28.36
54816;BME280;40715;55.752;37.884;2023-04-12T08:48:46;99172.88;;;32.34;27.97
54816;BME280;40715;55.752;37.884;2023-04-12T08:51:15;99165.91;;;32.31;27.97
54816;BME280;40715;55.752;37.884;2023-04-12T08:53:43;99158.38;;;32.33;27.82
54816;BME280;40715;55.752;37.884;2023-04-12T08:56:11;99152.84;;;32.27;27.92
54816;BME280;40715;55.752;37.884;2023-04-12T08:58:39;99163.16;;;32.31;28.22
54816;BME280;40715;55.752;37.884;2023-04-12T09:01:11;99164.88;;;32.32;27.91
54816;BME280;40715;55.752;37.884;2023-04-12T09:03:43;99167.41;;;32.34;27.82
54816;BME280;40715;55.752;37.884;2023-04-12T09:06:11;99172.00;;;32.33;28.12
54816;BME280;40715;55.752;37.884;2023-04-12T09:08:55;99166.75;;;32.47;27.54
54816;BME280;40715;55.752;37.884;2023-04-12T09:11:24;99158.00;;;32.37;27.86
54816;BME280;40715;55.752;37.884;2023-04-12T09:13:55;99158.00;;;32.37;27.84
54816;BME280;40715;55.752;37.884;2023-04-12T09:16:38;99156.88;;;32.46;27.89
54816;BME280;40715;55.752;37.884;2023-04-12T09:19:07;99154.25;;;32.38;27.81
54816;BME280;40715;55.752;37.884;2023-04-12T09:21:34;99147.09;;;32.37;27.75
54816;BME280;40715;55.752;37.884;2023-04-12T09:24:07;99139.78;;;32.37;27.91
54816;BME280;40715;55.752;37.884;2023-04-12T09:26:40;99147.94;;;32.37;27.26
54816;BME280;40715;55.752;37.884;2023-04-12T09:29:22;99137.78;;;32.46;27.62
54816;BME280;40715;55.752;37.884;2023-04-12T09:32:00;99144.66;;;32.42;27.76
54816;BME280;40715;55.752;37.884;2023-04-12T09:34:29;99147.75;;;32.39;27.42
54816;BME280;40715;55.752;37.884;2023-04-12T09:36:57;99142.00;;;32.33;27.54
54816;BME280;40715;55.752;37.884;2023-04-12T09:39:32;99131.78;;;32.35;27.31
54816;BME280;40715;55.752;37.884;2023-04-12T09:42:06;99130.09;;;32.34;27.76
54816;BME280;40715;55.752;37.884;2023-04-12T09:44:44;99136.38;;;32.35;27.31
54816;BME280;40715;55.752;37.884;2023-04-12T09:47:11;99134.88;;;32.32;27.45
54816;BME280;40715;55.752;37.884;2023-04-12T09:49:39;99131.50;;;32.30;27.29
54816;BME280;40715;55.752;37.884;2023-04-12T09:52:08;99127.75;;;32.31;27.09
54816;BME280;40715;55.752;37.884;2023-04-12T09:54:39;99117.03;;;32.30;27.02
54816;BME280;40715;55.752;37.884;2023-04-12T09:57:08;99123.50;;;32.29;26.95
54816;BME280;40715;55.752;37.884;2023-04-12T09:59:37;99119.06;;;32.28;27.37
54816;BME280;40715;55.752;37.884;2023-04-12T10:02:15;99109.03;;;32.28;26.92
54816;BME280;40715;55.752;37.884;2023-04-12T10:04:44;99118.06;;;32.29;26.85
54816;BME280;40715;55.752;37.884;2023-04-12T10:07:11;99114.50;;;32.28;27.23
54816;BME280;40715;55.752;37.884;2023-04-12T10:09:40;99114.69;;;32.27;26.88
54816;BME280;40715;55.752;37.884;2023-04-12T10:12:07;99119.25;;;32.26;27.22
54816;BME280;40715;55.752;37.884;2023-04-12T10:14:36;99115.91;;;32.24;27.19
54816;BME280;40715;55.752;37.884;2023-04-12T10:17:03;99110.91;;;32.28;27.27
54816;BME280;40715;55.752;37.884;2023-04-12T10:19:31;99106.50;;;32.27;27.10
54816;BME280;40715;55.752;37.884;2023-04-12T10:22:01;99109.03;;;32.28;27.16
54816;BME280;40715;55.752;37.884;2023-04-12T10:24:28;99098.13;;;32.28;27.14
54816;BME280;40715;55.752;37.884;2023-04-12T10:26:55;99101.88;;;32.27;26.62
54816;BME280;40715;55.752;37.884;2023-04-12T10:29:29;99103.41;;;32.30;26.49
54816;BME280;40715;55.752;37.884;2023-04-12T10:31:58;99100.84;;;32.28;27.02
54816;BME280;40715;55.752;37.884;2023-04-12T10:34:43;99100.09;;;32.34;26.74
54816;BME280;40715;55.752;37.884;2023-04-12T10:37:10;99095.41;;;32.28;26.81
54816;BME280;40715;55.752;37.884;2023-04-12T10:39:42;99099.16;;;32.27;26.60
54816;BME280;40715;55.752;37.884;2023-04-12T10:42:25;99096.06;;;32.30;26.95
54816;BME280;40715;55.752;37.884;2023-04-12T10:50:27;99083.75;;;32.34;26.48
54816;BME280;40715;55.752;37.884;2023-04-12T10:55:44;99084.31;;;32.30;26.33
54816;BME280;40715;55.752;37.884;2023-04-12T11:01:13;99080.53;;;32.31;26.57
54816;BME280;40715;55.752;37.884;2023-04-12T11:04:18;99072.94;;;32.41;26.66
54816;BME280;40715;55.752;37.884;2023-04-12T11:07:00;99064.84;;;32.33;26.76
54816;BME280;40715;55.752;37.884;2023-04-12T11:09:37;99061.44;;;32.31;26.45
54816;BME280;40715;55.752;37.884;2023-04-12T11:12:12;99053.03;;;32.26;26.43
54816;BME280;40715;55.752;37.884;2023-04-12T11:20:04;99044.34;;;32.22;26.47
54816;BME280;40715;55.752;37.884;2023-04-12T11:22:31;99041.44;;;32.24;26.57
54816;BME280;40715;55.752;37.884;2023-04-12T11:25:00;99029.91;;;32.22;26.81
54816;BME280;40715;55.752;37.884;2023-04-12T11:27:29;99027.19;;;32.22;26.38
54816;BME280;40715;55.752;37.884;2023-04-12T11:29:58;99021.09;;;32.20;26.56
54816;BME280;40715;55.752;37.884;2023-04-12T11:32:28;99020.88;;;32.21;26.58
54816;BME280;40715;55.752;37.884;2023-04-12T11:34:56;99017.09;;;32.22;26.55
54816;BME280;40715;55.752;37.884;2023-04-12T11:37:24;99011.84;;;32.21;26.39
54816;BME280;40715;55.752;37.884;2023-04-12T11:39:56;99011.66;;;32.22;26.59
54816;BME280;40715;55.752;37.884;2023-04-12T11:42:25;99011.66;;;32.22;26.52
54816;BME280;40715;55.752;37.884;2023-04-12T11:44:52;99006.00;;;32.24;26.41
54816;BME280;40715;55.752;37.884;2023-04-12T11:47:26;98999.09;;;32.21;26.57
54816;BME280;40715;55.752;37.884;2023-04-12T11:49:55;99003.47;;;32.22;26.34
54816;BME280;40715;55.752;37.884;2023-04-12T11:52:30;98997.66;;;32.25;26.39
54816;BME280;40715;55.752;37.884;2023-04-12T11:55:00;99001.44;;;32.24;26.65
54816;BME280;40715;55.752;37.884;2023-04-12T11:57:28;99004.16;;;32.24;26.70
54816;BME280;40715;55.752;37.884;2023-04-12T11:59:57;98998.03;;;32.22;26.31
54816;BME280;40715;55.752;37.884;2023-04-12T12:02:25;98986.09;;;32.23;26.61
54816;BME280;40715;55.752;37.884;2023-04-12T12:04:57;98985.06;;;32.24;26.26
54816;BME280;40715;55.752;37.884;2023-04-12T12:07:24;98989.66;;;32.24;26.44
54816;BME280;40715;55.752;37.884;2023-04-12T12:09:55;98991.56;;;32.23;26.11
54816;BME280;40715;55.752;37.884;2023-04-12T12:12:22;98988.63;;;32.25;26.22
54816;BME280;40715;55.752;37.884;2023-04-12T12:14:50;98983.00;;;32.26;26.06
54816;BME280;40715;55.752;37.884;2023-04-12T12:17:17;98991.38;;;32.25;26.20
54816;BME280;40715;55.752;37.884;2023-04-12T12:19:45;98984.88;;;32.26;26.54
54816;BME280;40715;55.752;37.884;2023-04-12T12:22:19;98982.78;;;32.28;26.59
54816;BME280;40715;55.752;37.884;2023-04-12T12:24:58;98962.22;;;32.25;26.53
54816;BME280;40715;55.752;37.884;2023-04-12T12:27:36;98970.47;;;32.32;26.50
54816;BME280;40715;55.752;37.884;2023-04-12T12:30:06;98966.84;;;32.25;26.37
54816;BME280;40715;55.752;37.884;2023-04-12T12:32:34;98971.44;;;32.24;26.50
54816;BME280;40715;55.752;37.884;2023-04-12T12:35:07;98963.91;;;32.26;26.25
54816;BME280;40715;55.752;37.884;2023-04-12T12:37:50;98961.28;;;32.33;26.57
54816;BME280;40715;55.752;37.884;2023-04-12T12:40:18;98957.25;;;32.29;26.45
54816;BME280;40715;55.752;37.884;2023-04-12T12:42:54;98957.03;;;32.30;25.99
54816;BME280;40715;55.752;37.884;2023-04-12T12:45:23;98949.44;;;32.26;26.31
54816;BME280;40715;55.752;37.884;2023-04-12T12:47:56;98949.66;;;32.24;26.53
54816;BME280;40715;55.752;37.884;2023-04-12T12:50:29;98937.69;;;32.25;26.19
54816;BME280;40715;55.752;37.884;2023-04-12T12:52:57;98934.13;;;32.25;26.17
54816;BME280;40715;55.752;37.884;2023-04-12T12:55:28;98936.66;;;32.26;26.11
54816;BME280;40715;55.752;37.884;2023-04-12T12:57:56;98940.06;;;32.28;26.25
54816;BME280;40715;55.752;37.884;2023-04-12T13:00:27;98935.81;;;32.26;26.43
54816;BME280;40715;55.752;37.884;2023-04-12T13:02:54;98934.59;;;32.28;26.27
54816;BME280;40715;55.752;37.884;2023-04-12T13:05:22;98934.59;;;32.28;26.36
54816;BME280;40715;55.752;37.884;2023-04-12T13:07:49;98927.25;;;32.29;25.97
54816;BME280;40715;55.752;37.884;2023-04-12T13:10:16;98913.81;;;32.27;26.23
54816;BME280;40715;55.752;37.884;2023-04-12T13:12:43;98919.91;;;32.29;26.03
54816;BME280;40715;55.752;37.884;2023-04-12T13:15:10;98915.72;;;32.27;25.80
54816;BME280;40715;55.752;37.884;2023-04-12T13:17:48;98913.00;;;32.27;26.21
54816;BME280;40715;55.752;37.884;2023-04-12T13:20:15;98915.53;;;32.28;25.97
54816;BME280;40715;55.752;37.884;2023-04-12T13:22:42;98918.88;;;32.30;26.30
54816;BME280;40715;55.752;37.884;2023-04-12T13:25:09;98916.38;;;32.29;26.00
54816;BME280;40715;55.752;37.884;2023-04-12T13:27:36;98919.09;;;32.29;26.04